Time;durP1;ratioP1;P1;durP2;ratioP2;P2;SDS_P1;SDS_P2;PMS_P1;PMS_P2;Temp;Humidity;BMP_temperature;BMP_pressure;BME280_temperature;BME280_humidity;BME280_pressure;Samples;Min_cycle;Max_cycle;Signal;HPM_P1;HPM_P2
2021/05/12 00:00:22;;;;;;;6.07;4.75;;;12.20;99.90;;;;;;5084570;28;20410;-67
2021/05/12 00:02:50;;;;;;;5.90;5.07;;;12.20;99.90;;;;;;5085159;28;20105;-67
2021/05/12 00:05:21;;;;;;;7.05;5.63;;;12.20;99.90;;;;;;5055828;28;20098;-69
2021/05/12 00:07:49;;;;;;;6.28;5.10;;;12.20;99.90;;;;;;5086042;28;20032;-68
2021/05/12 00:10:18;;;;;;;7.25;5.47;;;12.20;99.90;;;;;;5048968;28;20087;-68
2021/05/12 00:12:45;;;;;;;7.43;5.45;;;12.20;99.90;;;;;;5061462;28;20048;-68
2021/05/12 00:15:16;;;;;;;7.00;5.78;;;12.20;99.90;;;;;;5058417;28;20067;-68
2021/05/12 00:17:46;;;;;;;6.35;5.18;;;12.20;99.90;;;;;;5077261;28;20091;-69
2021/05/12 00:20:18;;;;;;;7.00;5.15;;;12.20;99.90;;;;;;5087550;28;20055;-69
2021/05/12 00:25:20;;;;;;;7.25;5.63;;;12.30;99.90;;;;;;5084276;28;20058;-69
2021/05/12 00:27:48;;;;;;;7.15;5.43;;;12.30;99.90;;;;;;5079651;28;20059;-68
2021/05/12 00:30:19;;;;;;;7.30;5.95;;;12.30;99.90;;;;;;5081019;28;20040;-68
2021/05/12 00:32:47;;;;;;;6.10;5.32;;;12.40;99.90;;;;;;5055927;28;20033;-69
2021/05/12 00:35:14;;;;;;;6.15;5.05;;;12.40;99.90;;;;;;5077212;28;20044;-69
2021/05/12 00:37:42;;;;;;;6.15;5.10;;;12.40;99.90;;;;;;5087029;28;20067;-69
2021/05/12 00:40:12;;;;;;;6.45;5.43;;;12.40;99.90;;;;;;5088365;28;20093;-69
2021/05/12 00:42:40;;;;;;;6.45;5.15;;;12.40;99.90;;;;;;5086160;28;20506;-69
2021/05/12 00:45:12;;;;;;;6.57;5.43;;;12.40;99.90;;;;;;5076524;28;20041;-69
2021/05/12 00:47:40;;;;;;;8.48;6.70;;;12.40;99.90;;;;;;5064498;28;20076;-69
2021/05/12 00:50:08;;;;;;;7.15;5.63;;;12.50;99.90;;;;;;5084804;28;20052;-69
2021/05/12 00:52:36;;;;;;;8.07;6.50;;;12.50;99.90;;;;;;5083167;28;20040;-69
2021/05/12 00:55:04;;;;;;;7.35;6.00;;;12.50;99.90;;;;;;5084103;28;20044;-69
2021/05/12 00:57:33;;;;;;;8.60;6.72;;;12.50;99.90;;;;;;5074504;28;20067;-69
2021/05/12 01:00:02;;;;;;;7.07;5.85;;;12.50;99.90;;;;;;5064745;28;20045;-69
2021/05/12 01:02:30;;;;;;;7.65;6.20;;;12.50;99.90;;;;;;5064195;28;20422;-69
2021/05/12 01:04:58;;;;;;;9.13;7.60;;;12.50;99.90;;;;;;5084363;28;20506;-69
2021/05/12 01:07:25;;;;;;;8.82;6.65;;;12.40;99.90;;;;;;5066628;28;20040;-69
2021/05/12 01:09:52;;;;;;;7.65;6.20;;;12.40;99.90;;;;;;5055828;28;20049;-69
2021/05/12 01:12:20;;;;;;;7.07;5.93;;;12.40;99.90;;;;;;5080729;28;20490;-69
2021/05/12 01:14:48;;;;;;;9.20;7.45;;;12.40;99.90;;;;;;5064503;28;20052;-69
2021/05/12 01:17:16;;;;;;;7.90;6.43;;;12.40;99.90;;;;;;5088178;28;20044;-69
2021/05/12 01:19:44;;;;;;;7.78;6.80;;;12.40;99.90;;;;;;5090821;28;20071;-69
2021/05/12 01:22:11;;;;;;;8.55;7.18;;;12.30;99.90;;;;;;5082492;28;20048;-69
2021/05/12 01:24:39;;;;;;;8.25;6.68;;;12.30;99.90;;;;;;5062924;28;20091;-69
2021/05/12 01:27:08;;;;;;;7.75;6.93;;;12.30;99.90;;;;;;5075472;28;20040;-69
2021/05/12 01:29:35;;;;;;;8.23;6.88;;;12.30;99.90;;;;;;5068869;28;20059;-69
2021/05/12 01:32:05;;;;;;;9.00;7.70;;;12.30;99.90;;;;;;5088691;28;20051;-69
2021/05/12 01:34:33;;;;;;;9.00;7.20;;;12.30;99.90;;;;;;5086342;28;20040;-69
2021/05/12 01:37:00;;;;;;;10.10;8.68;;;12.30;99.90;;;;;;5076804;28;20483;-69
2021/05/12 01:39:28;;;;;;;9.43;8.30;;;12.30;99.90;;;;;;5081373;28;20049;-69
2021/05/12 01:41:55;;;;;;;10.85;7.88;;;12.20;99.90;;;;;;5085053;28;20074;-69
2021/05/12 01:44:23;;;;;;;10.57;8.90;;;12.20;99.90;;;;;;5078680;28;20698;-69
2021/05/12 01:46:50;;;;;;;10.18;8.50;;;12.20;99.90;;;;;;5078623;28;20055;-69
2021/05/12 01:49:19;;;;;;;10.77;8.60;;;12.10;99.90;;;;;;5078865;28;20040;-69
2021/05/12 01:51:47;;;;;;;11.73;9.80;;;12.10;99.90;;;;;;5077364;28;20351;-69
2021/05/12 01:54:14;;;;;;;11.73;9.05;;;12.10;99.90;;;;;;5084444;28;20045;-69
2021/05/12 01:56:42;;;;;;;12.30;9.73;;;12.10;99.90;;;;;;5082854;28;20071;-69
2021/05/12 01:59:10;;;;;;;11.45;9.60;;;12.00;99.90;;;;;;5060025;28;20044;-69
2021/05/12 02:01:38;;;;;;;11.65;9.60;;;12.00;99.90;;;;;;5083923;28;20052;-68
2021/05/12 02:04:07;;;;;;;12.27;10.65;;;12.10;99.90;;;;;;5058180;28;20116;-69
2021/05/12 02:06:36;;;;;;;12.07;10.10;;;12.10;99.90;;;;;;5080130;28;20048;-69
2021/05/12 02:09:07;;;;;;;12.55;10.35;;;12.10;99.90;;;;;;5084656;28;20047;-69
2021/05/12 02:11:38;;;;;;;12.97;10.33;;;12.10;99.90;;;;;;5078029;28;20055;-69
2021/05/12 02:14:07;;;;;;;14.20;11.00;;;12.00;99.90;;;;;;5062310;28;20040;-69
2021/05/12 02:16:36;;;;;;;12.32;9.90;;;12.00;99.90;;;;;;5076828;28;20040;-69
2021/05/12 02:19:05;;;;;;;12.10;10.30;;;12.00;99.90;;;;;;5062014;28;20101;-69
2021/05/12 02:21:32;;;;;;;11.70;9.70;;;12.00;99.90;;;;;;5090519;28;20464;-69
2021/05/12 02:24:00;;;;;;;12.43;10.57;;;12.00;99.90;;;;;;5085985;28;20411;-69
2021/05/12 02:26:27;;;;;;;14.98;10.77;;;12.00;99.90;;;;;;5069521;28;20398;-69
2021/05/12 02:28:57;;;;;;;13.73;11.68;;;12.00;99.90;;;;;;5069581;28;20406;-68
2021/05/12 02:31:24;;;;;;;13.48;11.35;;;12.00;99.90;;;;;;5068239;28;20048;-68
2021/05/12 02:33:51;;;;;;;13.07;10.80;;;11.90;99.90;;;;;;5078253;28;20368;-69
2021/05/12 02:36:19;;;;;;;12.23;10.65;;;12.00;99.90;;;;;;5078387;28;20558;-69
2021/05/12 02:38:46;;;;;;;12.85;10.70;;;12.00;99.90;;;;;;5078934;28;20461;-69
2021/05/12 02:41:13;;;;;;;14.18;11.10;;;11.90;99.90;;;;;;5068963;28;20036;-69
2021/05/12 02:43:41;;;;;;;11.45;9.93;;;11.90;99.90;;;;;;5076705;28;20052;-69
2021/05/12 02:46:08;;;;;;;12.43;9.77;;;11.90;99.90;;;;;;5059775;28;20063;-69
2021/05/12 02:48:35;;;;;;;13.00;11.13;;;11.90;99.90;;;;;;5078272;28;20169;-69
2021/05/12 02:51:03;;;;;;;13.38;11.05;;;11.90;99.90;;;;;;5081572;28;20046;-69
2021/05/12 02:53:30;;;;;;;13.68;11.30;;;11.90;99.90;;;;;;5064660;28;20132;-69
2021/05/12 02:55:58;;;;;;;12.38;10.43;;;11.90;99.90;;;;;;5086976;28;20469;-69
2021/05/12 02:58:25;;;;;;;13.80;11.07;;;11.90;99.90;;;;;;5079930;28;20151;-69
2021/05/12 03:00:52;;;;;;;12.73;10.68;;;11.90;99.90;;;;;;5062257;28;20063;-69
2021/05/12 03:03:20;;;;;;;12.45;10.27;;;11.90;99.90;;;;;;5066035;28;20052;-69
2021/05/12 03:05:47;;;;;;;13.82;10.43;;;11.90;99.90;;;;;;5075651;28;20056;-69
2021/05/12 03:08:15;;;;;;;13.68;11.25;;;12.00;99.90;;;;;;5084651;28;20051;-69
2021/05/12 03:10:43;;;;;;;12.70;10.85;;;11.90;99.90;;;;;;5054992;28;20052;-69
2021/05/12 03:13:10;;;;;;;14.05;10.80;;;11.90;99.90;;;;;;5076496;28;20076;-69
2021/05/12 03:15:38;;;;;;;12.32;9.77;;;11.90;99.90;;;;;;5078533;28;20048;-69
2021/05/12 03:18:07;;;;;;;11.50;9.30;;;11.90;99.90;;;;;;5083904;28;20067;-69
2021/05/12 03:20:35;;;;;;;12.00;9.57;;;11.90;99.90;;;;;;5080181;28;20067;-69
2021/05/12 03:23:03;;;;;;;12.70;10.48;;;11.90;99.90;;;;;;5061938;28;20081;-69
2021/05/12 03:25:32;;;;;;;11.02;9.45;;;11.90;99.90;;;;;;5082215;28;20074;-69
2021/05/12 03:27:59;;;;;;;11.35;9.82;;;11.90;99.90;;;;;;5073267;28;20047;-69
2021/05/12 03:30:33;;;;;;;11.85;9.15;;;11.90;99.90;;;;;;5079880;28;20048;-69
2021/05/12 03:33:04;;;;;;;12.27;9.73;;;11.90;99.90;;;;;;5060245;28;20163;-69
2021/05/12 03:35:33;;;;;;;12.30;9.65;;;11.90;99.90;;;;;;5076613;28;20051;-69
2021/05/12 03:38:01;;;;;;;19.10;13.00;;;11.90;99.90;;;;;;5077762;28;20056;-69
2021/05/12 03:40:29;;;;;;;12.52;10.00;;;11.90;99.90;;;;;;5078267;28;20151;-69
2021/05/12 03:42:58;;;;;;;10.90;8.75;;;11.90;99.90;;;;;;5077714;28;20048;-69
2021/05/12 03:45:27;;;;;;;12.27;9.95;;;12.00;99.90;;;;;;5076418;28;20048;-69
2021/05/12 03:47:55;;;;;;;12.02;9.80;;;12.00;99.90;;;;;;5056618;28;20044;-69
2021/05/12 03:50:25;;;;;;;11.43;9.48;;;11.90;99.90;;;;;;5083429;28;20786;-69
2021/05/12 03:52:52;;;;;;;12.48;9.60;;;12.00;99.90;;;;;;5077599;28;20045;-69
2021/05/12 03:55:22;;;;;;;10.05;8.50;;;12.00;99.90;;;;;;5078423;28;20037;-69
2021/05/12 03:57:50;;;;;;;12.75;9.82;;;12.10;99.90;;;;;;5059545;28;20055;-68
2021/05/12 04:00:18;;;;;;;11.50;9.55;;;12.00;99.90;;;;;;5081916;28;20514;-69
2021/05/12 04:02:45;;;;;;;11.23;9.35;;;12.00;99.90;;;;;;5081193;28;20068;-68
2021/05/12 04:05:14;;;;;;;12.98;10.23;;;12.00;99.90;;;;;;5067091;28;20098;-69
2021/05/12 04:07:41;;;;;;;13.48;9.18;;;12.00;99.90;;;;;;5084862;28;20037;-69
2021/05/12 04:10:10;;;;;;;13.38;10.48;;;12.00;99.90;;;;;;5066248;28;20044;-69
2021/05/12 04:12:39;;;;;;;12.25;8.43;;;12.00;99.90;;;;;;5058222;28;20133;-69
2021/05/12 04:15:09;;;;;;;12.00;9.65;;;12.10;99.90;;;;;;5062881;28;20051;-69
2021/05/12 04:17:37;;;;;;;14.35;10.70;;;12.00;99.90;;;;;;5079733;28;20119;-69
2021/05/12 04:20:10;;;;;;;14.50;10.60;;;12.00;99.90;;;;;;5060762;28;20075;-69
2021/05/12 04:22:39;;;;;;;13.45;10.25;;;12.00;99.90;;;;;;5075441;28;20406;-69
2021/05/12 04:25:12;;;;;;;14.65;11.10;;;12.00;99.90;;;;;;5078705;28;20098;-69
2021/05/12 04:27:39;;;;;;;19.80;13.27;;;12.00;99.90;;;;;;5080705;28;20136;-69
2021/05/12 04:30:12;;;;;;;17.58;11.55;;;12.00;99.90;;;;;;5067807;28;20470;-69
2021/05/12 04:32:41;;;;;;;20.92;13.73;;;12.10;99.90;;;;;;5080585;28;20057;-69
2021/05/12 04:35:10;;;;;;;21.38;13.55;;;12.10;99.90;;;;;;5082078;28;20048;-69
2021/05/12 04:37:37;;;;;;;19.05;14.15;;;12.00;99.90;;;;;;5079861;28;20052;-69
2021/05/12 04:40:07;;;;;;;22.42;15.77;;;12.10;99.90;;;;;;5062118;28;20128;-69
2021/05/12 04:42:36;;;;;;;23.85;16.02;;;12.10;99.90;;;;;;5039845;28;20052;-69
2021/05/12 04:45:10;;;;;;;23.90;17.42;;;12.00;99.90;;;;;;5068847;28;20059;-69
2021/05/12 04:47:38;;;;;;;26.05;18.38;;;12.00;99.90;;;;;;5069179;28;20487;-68
2021/05/12 04:50:11;;;;;;;24.45;16.67;;;12.00;99.90;;;;;;5086128;28;20079;-69
2021/05/12 04:52:38;;;;;;;;;;;12.10;99.90;;;;;;5082553;28;20076;-69
2021/05/12 04:55:06;;;;;;;23.27;16.17;;;12.00;99.90;;;;;;5067803;28;20378;-69
2021/05/12 04:57:35;;;;;;;27.40;17.38;;;12.10;99.90;;;;;;5081695;28;20556;-69
2021/05/12 05:00:04;;;;;;;23.67;16.23;;;12.10;99.90;;;;;;5056476;28;20048;-69
2021/05/12 05:02:32;;;;;;;26.52;18.35;;;12.20;99.90;;;;;;5080918;28;20625;-69
2021/05/12 05:04:59;;;;;;;27.48;18.30;;;12.20;99.90;;;;;;5057761;28;20047;-69
2021/05/12 05:07:26;;;;;;;24.80;17.50;;;12.20;99.90;;;;;;5088518;28;20040;-69
2021/05/12 05:09:55;;;;;;;31.00;18.90;;;12.20;99.90;;;;;;5065698;28;20727;-68
2021/05/12 05:12:22;;;;;;;25.63;18.83;;;12.20;99.90;;;;;;5077970;28;20123;-69
2021/05/12 05:14:49;;;;;;;31.02;19.33;;;12.10;99.90;;;;;;5084429;28;20045;-69
2021/05/12 05:17:17;;;;;;;27.50;19.38;;;12.10;99.90;;;;;;5076967;28;20048;-68
2021/05/12 05:19:45;;;;;;;28.40;19.08;;;12.10;99.90;;;;;;5088701;28;20748;-69
2021/05/12 05:22:14;;;;;;;26.45;19.00;;;12.10;99.90;;;;;;5085823;28;20100;-68
2021/05/12 05:24:42;;;;;;;31.08;19.88;;;12.10;99.90;;;;;;5064511;28;20048;-68
2021/05/12 05:27:09;;;;;;;29.15;20.15;;;12.10;99.90;;;;;;5089861;28;20406;-68
2021/05/12 05:29:37;;;;;;;30.33;20.80;;;12.10;99.90;;;;;;5086215;28;20040;-68
2021/05/12 05:32:05;;;;;;;31.45;19.85;;;12.00;99.90;;;;;;5060901;28;20503;-69
2021/05/12 05:34:51;;;;;;;28.40;19.83;;;12.00;99.90;;;;;;5087457;28;20068;-69
2021/05/12 05:37:36;;;;;;;29.33;19.30;;;12.00;99.90;;;;;;5086070;28;20052;-68
2021/05/12 05:40:23;;;;;;;28.73;19.02;;;12.00;99.90;;;;;;5072382;28;20044;-68
2021/05/12 05:43:09;;;;;;;26.05;18.00;;;12.00;99.90;;;;;;5064146;28;20055;-69
2021/05/12 05:45:55;;;;;;;26.75;19.00;;;12.10;99.90;;;;;;5080140;28;20089;-68
2021/05/12 05:48:41;;;;;;;25.25;17.90;;;12.10;99.90;;;;;;5067941;28;20052;-68
2021/05/12 05:51:27;;;;;;;26.90;18.90;;;12.10;99.90;;;;;;5070863;28;20036;-69
2021/05/12 05:54:13;;;;;;;28.23;18.65;;;12.20;99.90;;;;;;5088553;28;20395;-68
2021/05/12 05:57:05;;;;;;;25.75;16.95;;;12.20;99.90;;;;;;5063184;28;20040;-69
2021/05/12 05:59:51;;;;;;;28.00;18.10;;;12.20;99.90;;;;;;5085277;28;20097;-69
2021/05/12 06:02:48;;;;;;;25.42;18.40;;;12.10;99.90;;;;;;5085026;28;20425;-69
2021/05/12 06:05:35;;;;;;;24.77;18.13;;;12.10;99.90;;;;;;5085392;28;20063;-69
2021/05/12 06:08:21;;;;;;;24.65;17.92;;;12.00;99.90;;;;;;5085549;28;20040;-69
2021/05/12 06:11:09;;;;;;;27.70;19.13;;;12.00;99.90;;;;;;5083259;28;20129;-67
2021/05/12 06:13:55;;;;;;;24.33;16.65;;;11.90;99.90;;;;;;5082093;28;20033;-68
2021/05/12 06:16:41;;;;;;;27.42;19.20;;;11.90;99.90;;;;;;5083695;28;20048;-68
2021/05/12 06:19:31;;;;;;;27.70;19.60;;;11.90;99.90;;;;;;5067902;28;20044;-68
2021/05/12 06:22:18;;;;;;;32.20;19.15;;;11.90;99.90;;;;;;5069171;28;20074;-69
2021/05/12 06:25:05;;;;;;;30.08;19.10;;;12.00;99.90;;;;;;5087202;28;20070;-68
2021/05/12 06:27:52;;;;;;;29.42;20.98;;;12.00;99.90;;;;;;5080653;28;20518;-68
2021/05/12 06:30:38;;;;;;;30.13;21.38;;;12.00;99.90;;;;;;5078505;28;20040;-67
2021/05/12 06:33:28;;;;;;;28.58;20.05;;;11.90;99.90;;;;;;5064330;28;20420;-68
2021/05/12 06:36:17;;;;;;;28.35;19.77;;;11.90;99.90;;;;;;5082746;28;20072;-68
2021/05/12 06:39:23;;;;;;;29.48;21.52;;;11.90;99.90;;;;;;5084986;28;20182;-68
2021/05/12 06:41:51;;;;;;;29.00;21.13;;;11.80;99.90;;;;;;5065563;28;20056;-68
2021/05/12 06:44:19;;;;;;;29.98;22.42;;;11.90;99.90;;;;;;5072196;28;20135;-68
2021/05/12 06:46:47;;;;;;;35.78;21.63;;;11.80;99.90;;;;;;5036891;28;20048;-68
2021/05/12 06:49:14;;;;;;;30.25;21.73;;;11.80;99.90;;;;;;5079573;28;20044;-68
2021/05/12 06:51:41;;;;;;;31.98;22.30;;;11.80;99.90;;;;;;5077462;28;20045;-68
2021/05/12 06:54:09;;;;;;;30.10;21.95;;;11.90;99.90;;;;;;5075389;28;20048;-69
2021/05/12 06:56:36;;;;;;;28.38;21.52;;;11.90;99.90;;;;;;5060734;28;20048;-69
2021/05/12 06:59:04;;;;;;;28.10;21.35;;;11.90;99.90;;;;;;5084939;28;20482;-69
2021/05/12 07:01:31;;;;;;;29.25;21.25;;;11.90;99.90;;;;;;5058477;28;20052;-69
2021/05/12 07:03:59;;;;;;;30.63;21.25;;;11.90;99.90;;;;;;5081221;28;20044;-69
2021/05/12 07:06:26;;;;;;;27.55;20.75;;;11.90;99.90;;;;;;5085164;28;20052;-69
2021/05/12 07:08:54;;;;;;;29.00;19.85;;;12.00;99.90;;;;;;5060493;28;20486;-69
2021/05/12 07:11:23;;;;;;;30.73;20.20;;;11.90;99.90;;;;;;5086715;28;20036;-69
2021/05/12 07:13:52;;;;;;;28.88;19.58;;;12.10;99.90;;;;;;5079495;28;20076;-69
2021/05/12 07:16:20;;;;;;;26.77;18.77;;;12.10;99.90;;;;;;5073179;28;20037;-69
2021/05/12 07:18:47;;;;;;;23.50;17.05;;;12.00;99.90;;;;;;5079157;28;20451;-69
2021/05/12 07:21:15;;;;;;;25.00;18.45;;;12.10;99.90;;;;;;5057364;28;20056;-68
2021/05/12 07:23:44;;;;;;;23.55;17.33;;;12.00;99.90;;;;;;5074661;28;20059;-68
2021/05/12 07:26:12;;;;;;;24.45;18.25;;;12.00;99.90;;;;;;5070311;28;20503;-68
2021/05/12 07:28:41;;;;;;;23.63;17.25;;;12.00;99.90;;;;;;5054564;28;20079;-68
2021/05/12 07:31:08;;;;;;;23.98;18.52;;;12.00;99.90;;;;;;5057075;28;20051;-68
2021/05/12 07:33:42;;;;;;;28.27;19.08;;;12.10;99.90;;;;;;5078943;28;20048;-68
2021/05/12 07:36:09;;;;;;;24.38;17.52;;;12.00;99.90;;;;;;5080893;28;20071;-68
2021/05/12 07:38:38;;;;;;;27.10;18.13;;;12.00;99.90;;;;;;5062668;28;20076;-68
2021/05/12 07:41:06;;;;;;;25.63;17.58;;;12.00;99.90;;;;;;5073861;28;20118;-68
2021/05/12 07:43:34;;;;;;;26.55;19.30;;;12.10;99.90;;;;;;5078449;28;20494;-69
2021/05/12 07:46:01;;;;;;;24.10;18.70;;;12.10;99.90;;;;;;5084554;28;20050;-68
2021/05/12 07:48:29;;;;;;;26.05;18.50;;;12.20;99.90;;;;;;5088428;28;20047;-68
2021/05/12 07:50:58;;;;;;;25.15;19.05;;;12.20;99.90;;;;;;5075262;28;20124;-68
2021/05/12 07:53:25;;;;;;;27.55;19.02;;;12.10;99.90;;;;;;5081354;28;20419;-68
2021/05/12 07:55:53;;;;;;;29.55;18.88;;;12.10;99.90;;;;;;5080295;28;20620;-68
2021/05/12 07:58:20;;;;;;;26.63;18.52;;;12.20;99.90;;;;;;5080484;28;20101;-68
2021/05/12 08:00:48;;;;;;;23.52;17.83;;;12.10;99.90;;;;;;5084432;28;20097;-68
2021/05/12 08:03:15;;;;;;;23.33;17.05;;;12.10;99.90;;;;;;5068084;28;21720;-69
2021/05/12 08:05:42;;;;;;;27.30;18.00;;;12.20;99.90;;;;;;5086495;28;20073;-69
2021/05/12 08:08:11;;;;;;;24.85;17.60;;;12.20;99.90;;;;;;5068806;28;20048;-69
2021/05/12 08:10:38;;;;;;;22.85;17.02;;;12.30;99.90;;;;;;5070235;28;20384;-69
2021/05/12 08:13:05;;;;;;;23.95;17.55;;;12.30;99.90;;;;;;5058289;28;20080;-68
2021/05/12 08:15:33;;;;;;;28.25;19.17;;;12.20;99.90;;;;;;5072935;28;20076;-68
2021/05/12 08:18:00;;;;;;;25.52;18.55;;;12.10;99.90;;;;;;5075502;28;21232;-68
2021/05/12 08:20:28;;;;;;;25.35;18.67;;;12.10;99.90;;;;;;5060408;28;20145;-69
2021/05/12 08:22:56;;;;;;;25.75;18.33;;;12.20;99.90;;;;;;5075774;28;20043;-68
2021/05/12 08:25:24;;;;;;;24.10;18.55;;;12.10;99.90;;;;;;5074709;28;20059;-68
2021/05/12 08:27:54;;;;;;;23.42;17.90;;;12.10;99.90;;;;;;5057582;28;20491;-68
2021/05/12 08:30:23;;;;;;;26.33;17.38;;;12.20;99.90;;;;;;5056764;28;20377;-71
2021/05/12 08:32:52;;;;;;;26.58;18.10;;;12.10;99.90;;;;;;5079126;28;20040;-68
2021/05/12 08:35:19;;;;;;;27.00;18.00;;;12.20;99.90;;;;;;5077798;28;20111;-70
2021/05/12 08:37:52;;;;;;;30.08;19.20;;;12.20;99.90;;;;;;5081296;28;20472;-69
2021/05/12 08:40:21;;;;;;;26.52;18.70;;;12.20;99.90;;;;;;5078597;28;20041;-69
2021/05/12 08:42:51;;;;;;;25.42;18.88;;;12.30;99.90;;;;;;5076361;28;20051;-69
2021/05/12 08:45:18;;;;;;;25.02;18.63;;;12.30;99.90;;;;;;5054975;28;20052;-69
2021/05/12 08:47:54;;;;;;;26.85;19.08;;;12.40;99.90;;;;;;5081161;28;20048;-69
2021/05/12 08:50:24;;;;;;;24.52;17.90;;;12.40;99.90;;;;;;5077824;28;20072;-69
2021/05/12 08:52:52;;;;;;;29.63;19.13;;;12.30;99.90;;;;;;5073807;28;20072;-68
2021/05/12 08:55:23;;;;;;;26.75;19.30;;;12.40;99.90;;;;;;5074949;28;20045;-69
2021/05/12 08:57:50;;;;;;;25.50;18.65;;;12.50;99.90;;;;;;5079559;28;20040;-69
2021/05/12 09:00:18;;;;;;;25.77;19.65;;;12.50;99.90;;;;;;5062112;28;20424;-69
2021/05/12 09:02:47;;;;;;;25.10;18.33;;;12.60;99.90;;;;;;5071893;28;20056;-68
2021/05/12 09:05:14;;;;;;;25.55;18.27;;;12.70;99.90;;;;;;5053446;28;20044;-68
2021/05/12 09:07:42;;;;;;;26.05;19.02;;;12.70;99.90;;;;;;5071569;28;20440;-68
2021/05/12 09:10:10;;;;;;;27.50;20.30;;;12.70;99.90;;;;;;5074813;28;20044;-69
2021/05/12 09:12:52;;;;;;;23.35;18.77;;;12.80;99.90;;;;;;5065035;28;20047;-69
2021/05/12 09:15:23;;;;;;;26.23;18.30;;;12.80;99.90;;;;;;5080718;28;20449;-69
2021/05/12 09:17:52;;;;;;;27.80;20.00;;;12.90;99.90;;;;;;5064223;28;20040;-69
2021/05/12 09:20:20;;;;;;;25.63;20.08;;;13.00;99.90;;;;;;5078767;28;20098;-69
2021/05/12 09:22:57;;;;;;;26.58;19.67;;;13.00;99.90;;;;;;5087741;28;20055;-69
2021/05/12 09:25:25;;;;;;;25.05;19.00;;;13.00;99.90;;;;;;5077380;28;20056;-70
2021/05/12 09:28:17;;;;;;;27.73;18.95;;;13.20;99.90;;;;;;5085030;28;20049;-69
2021/05/12 09:31:07;;;;;;;27.35;19.08;;;13.30;99.90;;;;;;5079623;28;20049;-70
2021/05/12 09:33:39;;;;;;;25.92;18.77;;;13.40;99.90;;;;;;5082331;28;20048;-69
2021/05/12 09:36:07;;;;;;;26.33;18.98;;;13.30;99.90;;;;;;5088451;28;20064;-69
2021/05/12 09:38:36;;;;;;;26.83;19.33;;;13.10;99.90;;;;;;5087357;28;20687;-69
2021/05/12 09:41:05;;;;;;;27.27;19.30;;;13.00;99.90;;;;;;5068974;28;20137;-69
2021/05/12 09:43:34;;;;;;;26.17;19.40;;;12.90;99.90;;;;;;5082778;28;20070;-69
2021/05/12 09:46:22;;;;;;;29.42;22.55;;;12.90;99.90;;;;;;5080842;28;20499;-70
2021/05/12 09:48:59;;;;;;;22.55;18.02;;;12.90;99.90;;;;;;5085365;28;20136;-69
2021/05/12 09:51:31;;;;;;;26.05;19.25;;;12.90;99.90;;;;;;5088181;28;20039;-69
2021/05/12 09:54:19;;;;;;;23.83;18.48;;;12.80;99.90;;;;;;5080853;28;20098;-69
2021/05/12 09:56:58;;;;;;;27.20;19.27;;;12.90;99.90;;;;;;5072467;28;20176;-70
2021/05/12 09:59:26;;;;;;;22.42;17.90;;;13.00;99.90;;;;;;5080353;28;20068;-69
2021/05/12 10:01:55;;;;;;;26.88;19.35;;;13.20;99.90;;;;;;5085991;28;20079;-69
2021/05/12 10:04:38;;;;;;;23.17;18.30;;;13.40;99.90;;;;;;5076047;28;20052;-69
2021/05/12 10:07:32;;;;;;;25.20;17.55;;;13.40;99.90;;;;;;5086723;28;20149;-69
2021/05/12 10:09:59;;;;;;;25.33;18.27;;;13.60;99.90;;;;;;5086787;28;20375;-69
2021/05/12 10:12:31;;;;;;;22.65;17.67;;;13.60;99.90;;;;;;5084505;28;20036;-69
2021/05/12 10:14:59;;;;;;;24.20;17.52;;;13.80;99.90;;;;;;5056854;28;20391;-69
2021/05/12 10:17:28;;;;;;;22.02;17.40;;;13.80;99.90;;;;;;5077410;28;20487;-69
2021/05/12 10:19:56;;;;;;;22.63;17.55;;;13.80;99.90;;;;;;5088499;28;20490;-69
2021/05/12 10:22:24;;;;;;;25.70;18.45;;;14.00;99.90;;;;;;5068997;28;20055;-69
2021/05/12 10:24:52;;;;;;;22.48;16.98;;;14.00;99.90;;;;;;5077089;28;20663;-69
2021/05/12 10:27:27;;;;;;;21.67;16.42;;;14.10;99.90;;;;;;5059467;28;20086;-69
2021/05/12 10:29:56;;;;;;;20.58;16.00;;;14.00;99.90;;;;;;5083288;28;20051;-69
2021/05/12 10:32:31;;;;;;;20.70;16.10;;;14.00;99.90;;;;;;5085575;28;20048;-69
2021/05/12 10:35:05;;;;;;;21.58;17.02;;;13.80;99.90;;;;;;5077395;28;20553;-69
2021/05/12 10:37:36;;;;;;;23.42;16.52;;;13.90;99.90;;;;;;5080322;28;20048;-69
2021/05/12 10:40:18;;;;;;;21.92;17.02;;;14.00;99.90;;;;;;5079061;28;20082;-69
2021/05/12 10:43:31;;;;;;;22.90;17.38;;;14.00;99.90;;;;;;5087554;28;20044;-69
2021/05/12 10:46:06;;;;;;;21.90;17.10;;;14.10;99.90;;;;;;5084942;28;20055;-70
2021/05/12 10:48:45;;;;;;;27.30;18.27;;;14.00;99.90;;;;;;5066525;28;20086;-70
2021/05/12 10:51:22;;;;;;;24.40;17.98;;;14.00;99.90;;;;;;5079762;28;20041;-68
2021/05/12 10:53:52;;;;;;;21.98;17.70;;;14.00;99.90;;;;;;5079938;28;20071;-68
2021/05/12 10:56:22;;;;;;;27.00;18.95;;;13.90;99.90;;;;;;5083082;28;20089;-68
2021/05/12 10:58:58;;;;;;;19.88;15.90;;;13.80;99.90;;;;;;5087768;28;20048;-68
2021/05/12 11:01:34;;;;;;;23.38;16.60;;;13.70;99.90;;;;;;5064775;28;20048;-68
2021/05/12 11:04:05;;;;;;;22.85;16.85;;;13.50;99.90;;;;;;5078498;28;20048;-68
2021/05/12 11:06:38;;;;;;;29.02;19.48;;;13.40;99.90;;;;;;5086018;28;20040;-69
2021/05/12 11:09:35;;;;;;;22.65;17.75;;;13.40;99.90;;;;;;5083137;28;20044;-70
2021/05/12 11:12:16;;;;;;;23.75;17.85;;;13.50;99.90;;;;;;5082677;28;20089;-69
2021/05/12 11:14:58;;;;;;;27.00;19.33;;;13.60;99.90;;;;;;5081551;28;20041;-69
2021/05/12 11:17:47;;;;;;;23.95;17.65;;;13.60;99.90;;;;;;5065506;28;20418;-69
2021/05/12 11:20:20;;;;;;;24.23;18.52;;;13.80;99.90;;;;;;5083515;28;20048;-69
2021/05/12 11:22:48;;;;;;;20.17;16.67;;;13.90;99.90;;;;;;5078827;28;20105;-69
2021/05/12 11:25:27;;;;;;;24.33;18.60;;;14.00;99.90;;;;;;5083937;28;20060;-69
2021/05/12 11:33:08;;;;;;;20.83;16.13;;;13.80;99.90;;;;;;5063952;28;20044;-69
2021/05/12 11:35:45;;;;;;;25.02;18.17;;;14.10;99.90;;;;;;5076766;28;20052;-68
2021/05/12 11:38:17;;;;;;;23.65;17.20;;;14.00;99.90;;;;;;5084700;28;20090;-68
2021/05/12 11:41:07;;;;;;;23.67;18.60;;;13.90;99.90;;;;;;5064257;28;20071;-69
2021/05/12 11:43:45;;;;;;;23.95;18.15;;;14.10;99.90;;;;;;5078571;28;20553;-68
2021/05/12 11:46:24;;;;;;;23.83;17.52;;;14.30;99.90;;;;;;5082079;28;20072;-69
2021/05/12 11:48:53;;;;;;;23.17;17.73;;;14.40;99.90;;;;;;5082720;28;20464;-68
2021/05/12 11:51:29;;;;;;;23.90;18.75;;;14.60;99.90;;;;;;5082753;28;20482;-68
2021/05/12 11:53:57;;;;;;;23.25;18.73;;;14.50;99.90;;;;;;5079546;28;20040;-68
2021/05/12 11:56:25;;;;;;;24.23;18.23;;;14.50;99.90;;;;;;5059474;28;20040;-68
2021/05/12 11:59:02;;;;;;;25.75;18.33;;;14.40;99.90;;;;;;5045686;28;20067;-68
2021/05/12 12:01:34;;;;;;;27.38;19.00;;;14.40;99.90;;;;;;5079421;28;20048;-68
2021/05/12 12:06:45;;;;;;;25.13;17.83;;;14.20;99.90;;;;;;5073346;28;20044;-69
2021/05/12 12:09:15;;;;;;;25.52;18.42;;;14.20;99.90;;;;;;5082190;28;20041;-68
2021/05/12 12:11:44;;;;;;;26.35;19.13;;;14.10;99.90;;;;;;5079024;28;20079;-69
2021/05/12 12:14:12;;;;;;;28.52;20.17;;;14.20;99.90;;;;;;5079540;28;20049;-68
2021/05/12 12:16:42;;;;;;;28.95;20.38;;;14.10;99.90;;;;;;5081280;28;20565;-69
2021/05/12 12:19:17;;;;;;;28.10;19.33;;;13.90;99.90;;;;;;5079412;28;20136;-68
2021/05/12 12:21:46;;;;;;;30.38;20.75;;;13.80;99.90;;;;;;5072626;28;20099;-69
2021/05/12 12:24:23;;;;;;;28.45;19.50;;;14.00;99.90;;;;;;5084476;28;20083;-69
2021/05/12 12:27:03;;;;;;;25.35;18.67;;;14.10;99.90;;;;;;5072895;28;20048;-69
2021/05/12 12:29:33;;;;;;;22.98;18.35;;;14.30;99.90;;;;;;5078634;28;20143;-69
2021/05/12 12:32:03;;;;;;;22.85;17.63;;;14.30;99.90;;;;;;5076877;28;20515;-68
2021/05/12 12:34:44;;;;;;;26.35;17.92;;;14.10;99.90;;;;;;5073483;28;20525;-68
2021/05/12 12:37:16;;;;;;;27.95;18.70;;;14.30;99.90;;;;;;5067795;28;20052;-69
2021/05/12 12:39:59;;;;;;;20.40;16.23;;;14.30;99.90;;;;;;5075645;28;20048;-68
2021/05/12 12:42:49;;;;;;;23.73;18.35;;;14.50;99.90;;;;;;5086548;28;20127;-68
2021/05/12 12:45:26;;;;;;;28.15;17.50;;;14.70;99.90;;;;;;5084687;28;20393;-68
2021/05/12 12:47:56;;;;;;;22.63;17.10;;;14.70;99.90;;;;;;5074961;28;20136;-68
2021/05/12 12:50:25;;;;;;;23.88;17.35;;;14.50;99.90;;;;;;5054138;28;20043;-68
2021/05/12 12:52:54;;;;;;;23.63;17.50;;;14.50;99.90;;;;;;5072925;28;20040;-68
2021/05/12 12:55:27;;;;;;;22.90;18.70;;;14.40;99.90;;;;;;5061878;28;20072;-68
2021/05/12 12:57:55;;;;;;;25.45;17.83;;;14.40;99.90;;;;;;5087907;28;20044;-68
2021/05/12 13:00:29;;;;;;;25.17;18.80;;;14.60;99.90;;;;;;5079822;28;20067;-68
2021/05/12 13:03:24;;;;;;;22.88;16.70;;;14.60;99.90;;;;;;5072836;28;20148;-68